createdAt,value
2018-08-24T00:00:15.435Z,2.00
2018-08-24T00:02:44.106Z,2.80
2018-08-24T00:05:12.840Z,3.03
2018-08-24T00:07:41.404Z,1.60
2018-08-24T00:10:10.012Z,2.13
2018-08-24T00:12:38.627Z,2.63
2018-08-24T00:15:07.295Z,1.70
2018-08-24T00:17:36.120Z,2.27
2018-08-24T00:20:04.705Z,2.13
2018-08-24T00:22:33.298Z,2.53
2018-08-24T00:25:01.927Z,2.30
2018-08-24T00:27:30.449Z,3.70
2018-08-24T00:29:59.041Z,1.53
2018-08-24T00:32:27.748Z,1.07
2018-08-24T00:34:56.370Z,1.50
2018-08-24T00:37:24.992Z,1.43
2018-08-24T00:39:53.502Z,1.60
2018-08-24T00:42:22.095Z,1.57
2018-08-24T00:44:50.659Z,1.40
2018-08-24T00:47:19.229Z,1.37
2018-08-24T00:49:47.949Z,1.87
2018-08-24T00:52:16.606Z,4.27
2018-08-24T00:54:45.206Z,4.30
2018-08-24T00:57:13.879Z,2.33
2018-08-24T00:59:42.553Z,1.60
2018-08-24T01:02:11.168Z,2.43
2018-08-24T01:04:39.744Z,1.73
2018-08-24T01:07:12.446Z,1.83
2018-08-24T01:09:41.745Z,1.53
2018-08-24T01:12:10.354Z,1.30
2018-08-24T01:14:40.094Z,1.37
2018-08-24T01:17:13.918Z,1.27
2018-08-24T01:19:42.975Z,1.70
2018-08-24T01:22:11.519Z,1.50
2018-08-24T01:24:40.114Z,1.83
2018-08-24T01:27:09.274Z,1.13
2018-08-24T01:29:38.862Z,2.07
2018-08-24T01:32:07.620Z,2.13
2018-08-24T01:34:37.014Z,1.97
2018-08-24T01:37:05.600Z,3.40
2018-08-24T01:39:34.345Z,2.53
2018-08-24T01:42:02.981Z,3.37
2018-08-24T01:44:31.559Z,3.63
2018-08-24T01:47:00.181Z,3.23
2018-08-24T01:49:28.751Z,3.00
2018-08-24T01:51:57.263Z,3.27
2018-08-24T01:54:25.848Z,3.30
2018-08-24T01:56:54.433Z,3.70
2018-08-24T01:59:23.014Z,3.87
2018-08-24T02:01:51.567Z,3.10
2018-08-24T02:04:20.103Z,3.67
2018-08-24T02:06:48.617Z,3.40
2018-08-24T02:09:21.590Z,3.50
2018-08-24T02:11:50.545Z,3.70
2018-08-24T02:14:24.643Z,4.30
2018-08-24T02:16:53.228Z,3.80
2018-08-24T02:19:27.057Z,5.17
2018-08-24T02:22:00.837Z,4.23
2018-08-24T02:24:29.347Z,4.40
2018-08-24T02:26:58.058Z,4.87
2018-08-24T02:29:26.652Z,5.00
2018-08-24T02:31:55.199Z,4.37
2018-08-24T02:34:23.700Z,6.07
2018-08-24T02:36:52.358Z,6.93
2018-08-24T02:39:20.942Z,6.73
2018-08-24T02:41:49.503Z,6.70
2018-08-24T02:44:18.072Z,7.23
2018-08-24T02:46:47.346Z,7.50
2018-08-24T02:49:15.915Z,7.67
2018-08-24T02:51:44.584Z,7.77
2018-08-24T02:54:13.041Z,8.03
2018-08-24T02:56:41.560Z,9.40
2018-08-24T02:59:10.099Z,9.27
2018-08-24T03:01:38.659Z,9.87
2018-08-24T03:04:07.253Z,9.77
2018-08-24T03:06:35.787Z,9.93
2018-08-24T03:09:06.745Z,10.63
2018-08-24T03:11:35.210Z,11.53
2018-08-24T03:14:03.791Z,11.67
2018-08-24T03:16:32.409Z,12.13
2018-08-24T03:19:00.862Z,12.10
2018-08-24T03:21:29.333Z,12.47
2018-08-24T03:23:57.873Z,11.83
2018-08-24T03:26:26.471Z,12.80
2018-08-24T03:28:54.992Z,12.70
2018-08-24T03:31:23.557Z,13.03
2018-08-24T03:33:52.065Z,16.53
2018-08-24T03:36:20.601Z,20.13
2018-08-24T03:38:49.182Z,17.60
2018-08-24T03:41:17.717Z,21.10
2018-08-24T03:43:46.321Z,17.73
2018-08-24T03:46:14.858Z,19.60
2018-08-24T03:48:43.402Z,20.27
2018-08-24T03:51:11.930Z,19.30
2018-08-24T03:53:40.497Z,20.47
2018-08-24T03:56:09.320Z,17.97
2018-08-24T03:58:37.912Z,18.67
2018-08-24T04:01:06.581Z,18.53
2018-08-24T04:03:35.132Z,18.60
2018-08-24T04:06:03.736Z,17.40
2018-08-24T04:08:32.306Z,19.20
2018-08-24T04:11:00.867Z,18.13
2018-08-24T04:13:29.442Z,15.57
2018-08-24T04:15:58.032Z,16.67
2018-08-24T04:18:26.657Z,15.53
2018-08-24T04:20:55.231Z,13.63
2018-08-24T04:23:23.828Z,13.70
2018-08-24T04:25:52.423Z,13.57
2018-08-24T04:28:21.010Z,14.13
2018-08-24T04:30:49.637Z,14.70
2018-08-24T04:33:18.265Z,16.30
2018-08-24T04:35:46.739Z,13.70
2018-08-24T04:38:15.366Z,13.80
2018-08-24T04:40:44.063Z,11.93
2018-08-24T04:43:12.562Z,12.23
2018-08-24T04:45:41.205Z,11.90
2018-08-24T04:48:09.676Z,12.23
2018-08-24T04:50:38.241Z,11.60
2018-08-24T04:53:06.940Z,13.93
2018-08-24T04:55:35.633Z,11.27
2018-08-24T04:58:04.268Z,11.13
2018-08-24T05:03:23.238Z,11.17
2018-08-24T05:05:52.090Z,11.80
2018-08-24T05:08:20.677Z,13.30
2018-08-24T05:10:49.196Z,11.87
2018-08-24T05:13:17.832Z,13.33
2018-08-24T05:15:46.459Z,11.47
2018-08-24T05:18:15.242Z,13.10
2018-08-24T05:20:43.946Z,13.70
2018-08-24T05:23:12.636Z,11.87
2018-08-24T05:25:41.262Z,18.23
2018-08-24T05:28:09.913Z,16.77
2018-08-24T05:30:38.528Z,14.33
2018-08-24T05:33:07.164Z,12.93
2018-08-24T05:35:35.814Z,20.27
2018-08-24T05:38:04.440Z,13.47
2018-08-24T05:40:32.973Z,14.23
2018-08-24T05:43:01.606Z,13.27
2018-08-24T05:45:30.322Z,18.20
2018-08-24T05:47:58.896Z,12.90
2018-08-24T05:50:28.027Z,15.43
2018-08-24T05:52:56.757Z,16.70
2018-08-24T05:55:25.428Z,14.67
2018-08-24T05:57:54.080Z,13.47
2018-08-24T06:00:39.112Z,14.87
2018-08-24T06:03:08.255Z,15.40
2018-08-24T06:05:39.263Z,14.33
2018-08-24T06:08:08.003Z,14.33
2018-08-24T06:10:36.749Z,15.07
2018-08-24T06:13:06.092Z,15.83
2018-08-24T06:15:35.672Z,18.77
2018-08-24T06:18:04.272Z,17.97
2018-08-24T06:20:33.331Z,18.00
2018-08-24T06:23:01.953Z,18.23
2018-08-24T06:25:30.644Z,19.10
2018-08-24T06:27:59.298Z,18.77
2018-08-24T06:30:27.900Z,15.10
2018-08-24T06:32:56.873Z,18.57
2018-08-24T06:35:25.573Z,17.43
2018-08-24T06:37:54.208Z,15.23
2018-08-24T06:40:22.919Z,17.37
2018-08-24T06:42:51.494Z,16.30
2018-08-24T06:45:20.056Z,19.97
2018-08-24T06:47:48.758Z,17.53
2018-08-24T06:50:17.378Z,17.43
2018-08-24T06:52:45.949Z,19.57
2018-08-24T06:55:14.719Z,17.17
2018-08-24T06:57:43.326Z,18.37
2018-08-24T07:00:11.929Z,16.43
2018-08-24T07:02:40.624Z,16.30
2018-08-24T07:05:09.338Z,16.27
2018-08-24T07:07:37.798Z,17.70
2018-08-24T07:10:06.412Z,17.93
2018-08-24T07:12:35.017Z,20.00
2018-08-24T07:15:03.664Z,20.40
2018-08-24T07:17:37.321Z,19.73
2018-08-24T07:20:06.172Z,15.27
2018-08-24T07:22:34.680Z,20.40
2018-08-24T07:25:03.801Z,17.80
2018-08-24T07:27:32.300Z,15.27
2018-08-24T07:30:00.815Z,17.57
2018-08-24T07:32:29.403Z,15.90
2018-08-24T07:34:57.958Z,15.40
2018-08-24T07:37:26.808Z,18.77
2018-08-24T07:39:55.443Z,18.10
2018-08-24T07:42:24.273Z,16.03
2018-08-24T07:44:53.372Z,19.80
2018-08-24T07:47:22.669Z,18.53
2018-08-24T07:49:51.716Z,25.27
2018-08-24T07:52:20.261Z,15.37
2018-08-24T07:54:48.960Z,16.73
2018-08-24T07:57:17.499Z,14.63
2018-08-24T07:59:46.128Z,16.53
2018-08-24T08:02:14.782Z,16.73
2018-08-24T08:04:43.262Z,18.70
2018-08-24T08:07:11.965Z,16.47
2018-08-24T08:09:40.733Z,18.10
2018-08-24T08:12:09.252Z,14.20
2018-08-24T08:14:41.890Z,16.93
2018-08-24T08:17:10.492Z,14.20
2018-08-24T08:19:39.531Z,17.30
2018-08-24T08:22:08.067Z,15.27
2018-08-24T08:24:36.628Z,14.10
2018-08-24T08:27:08.408Z,13.67
2018-08-24T08:30:11.354Z,14.40
2018-08-24T08:32:39.994Z,18.50
2018-08-24T08:35:08.771Z,18.67
2018-08-24T08:37:37.393Z,15.13
2018-08-24T08:40:06.035Z,14.13
2018-08-24T08:42:34.572Z,17.90
2018-08-24T08:45:03.625Z,17.00
2018-08-24T08:47:32.198Z,14.40
2018-08-24T08:50:00.765Z,16.37
2018-08-24T08:52:29.328Z,17.43
2018-08-24T08:54:57.942Z,14.10
2018-08-24T08:57:27.137Z,12.80
2018-08-24T08:59:55.757Z,11.80
2018-08-24T09:02:24.369Z,7.97
2018-08-24T09:04:53.107Z,7.87
2018-08-24T09:07:21.673Z,7.73
2018-08-24T09:09:50.263Z,8.93
2018-08-24T09:12:18.858Z,8.60
2018-08-24T09:14:47.340Z,10.13
2018-08-24T09:17:21.220Z,9.00
2018-08-24T09:19:55.151Z,8.47
2018-08-24T09:22:28.974Z,7.50
2018-08-24T09:25:02.644Z,10.27
2018-08-24T09:27:37.955Z,9.50
2018-08-24T09:30:06.652Z,7.20
2018-08-24T09:32:35.290Z,10.90
2018-08-24T09:35:03.852Z,9.60
2018-08-24T09:37:36.046Z,9.97
2018-08-24T09:40:04.894Z,7.83
2018-08-24T09:42:33.479Z,11.27
2018-08-24T09:45:02.048Z,8.83
2018-08-24T09:47:35.840Z,11.00
2018-08-24T09:50:09.547Z,7.70
2018-08-24T09:52:38.061Z,9.33
2018-08-24T09:55:06.692Z,12.47
2018-08-24T09:57:35.215Z,9.03
2018-08-24T10:00:03.830Z,8.47
2018-08-24T10:02:37.659Z,8.17
2018-08-24T10:05:11.857Z,7.30
2018-08-24T10:07:44.443Z,8.40
2018-08-24T10:10:12.960Z,5.67
2018-08-24T10:12:41.506Z,9.17
2018-08-24T10:15:10.356Z,6.33
2018-08-24T10:17:38.979Z,6.00
2018-08-24T10:20:07.855Z,6.63
2018-08-24T10:22:36.443Z,5.90
2018-08-24T10:25:05.282Z,5.30
2018-08-24T10:27:34.021Z,6.00
2018-08-24T10:30:02.765Z,7.95
2018-08-24T10:32:31.393Z,5.70
2018-08-24T10:35:00.149Z,6.47
2018-08-24T10:37:28.820Z,4.50
2018-08-24T10:39:57.360Z,7.67
2018-08-24T10:42:25.948Z,7.30
2018-08-24T10:44:54.687Z,4.17
2018-08-24T10:47:23.429Z,5.08
2018-08-24T10:49:52.349Z,3.33
2018-08-24T10:52:21.046Z,5.50
2018-08-24T10:54:49.835Z,6.50
2018-08-24T10:57:18.463Z,3.92
2018-08-24T10:59:46.968Z,4.53
2018-08-24T11:02:15.449Z,4.25
2018-08-24T11:04:43.973Z,8.20
2018-08-24T11:07:12.727Z,8.28
2018-08-24T11:09:41.374Z,6.63
2018-08-24T11:12:10.014Z,4.37
2018-08-24T11:14:38.633Z,3.90
2018-08-24T11:17:07.192Z,4.83
2018-08-24T11:19:35.921Z,6.58
2018-08-24T11:22:04.627Z,6.62
2018-08-24T11:24:33.310Z,4.97
2018-08-24T11:27:02.127Z,5.62
2018-08-24T11:29:30.623Z,4.75
2018-08-24T11:31:59.325Z,4.80
2018-08-24T11:34:27.886Z,5.60
2018-08-24T11:36:56.644Z,4.50
2018-08-24T11:39:25.436Z,3.95
2018-08-24T11:41:54.220Z,3.12
2018-08-24T11:44:23.093Z,4.55
2018-08-24T11:46:51.771Z,2.40
2018-08-24T11:49:20.472Z,3.47
2018-08-24T11:51:49.943Z,4.37
2018-08-24T11:54:18.757Z,2.60
2018-08-24T11:56:47.452Z,2.70
2018-08-24T11:59:16.133Z,4.65
2018-08-24T12:01:45.022Z,7.97
2018-08-24T12:04:13.838Z,3.75
2018-08-24T12:06:42.332Z,5.10
2018-08-24T12:09:12.273Z,3.72
2018-08-24T12:11:40.789Z,5.67
2018-08-24T12:14:09.477Z,3.95
2018-08-24T12:16:37.908Z,4.70
2018-08-24T12:19:06.444Z,3.33
2018-08-24T12:21:34.987Z,3.58
2018-08-24T12:24:03.473Z,4.78
2018-08-24T12:26:31.999Z,2.98
2018-08-24T12:29:00.560Z,8.40
2018-08-24T12:31:29.023Z,4.43
2018-08-24T12:33:57.932Z,4.33
2018-08-24T12:36:26.531Z,4.93
2018-08-24T12:38:55.053Z,3.30
2018-08-24T12:41:23.704Z,3.37
2018-08-24T12:43:52.181Z,4.40
2018-08-24T12:46:20.653Z,4.13
2018-08-24T12:48:49.278Z,3.07
2018-08-24T12:51:17.788Z,5.47
2018-08-24T12:53:46.369Z,4.20
2018-08-24T12:56:21.018Z,3.47
2018-08-24T12:58:50.541Z,4.43
2018-08-24T13:01:19.260Z,3.07
2018-08-24T13:03:47.816Z,4.30
2018-08-24T13:06:16.461Z,5.30
2018-08-24T13:08:45.539Z,4.33
2018-08-24T13:11:14.617Z,3.03
2018-08-24T13:13:43.320Z,3.90
2018-08-24T13:16:11.939Z,2.93
2018-08-24T13:18:40.512Z,3.20
2018-08-24T13:21:08.957Z,3.50
2018-08-24T13:23:37.525Z,4.47
2018-08-24T13:26:06.138Z,3.50
2018-08-24T13:28:34.746Z,5.17
2018-08-24T13:31:03.292Z,3.50
2018-08-24T13:33:31.861Z,4.07
2018-08-24T13:36:00.504Z,3.40
2018-08-24T13:38:29.071Z,6.03
2018-08-24T13:40:57.625Z,3.70
2018-08-24T13:43:26.259Z,5.53
2018-08-24T13:45:54.764Z,3.53
2018-08-24T13:48:23.337Z,5.57
2018-08-24T13:50:51.954Z,4.50
2018-08-24T13:53:20.566Z,3.30
2018-08-24T13:55:49.160Z,3.53
2018-08-24T13:58:17.859Z,2.40
2018-08-24T14:00:46.435Z,4.50
2018-08-24T14:03:15.041Z,4.73
2018-08-24T14:05:43.884Z,2.80
2018-08-24T14:08:12.440Z,2.80
2018-08-24T14:10:40.952Z,5.33
2018-08-24T14:13:09.543Z,3.90
2018-08-24T14:15:38.530Z,3.73
2018-08-24T14:18:07.064Z,4.13
2018-08-24T14:20:35.721Z,2.97
2018-08-24T14:23:04.477Z,7.23
2018-08-24T14:25:33.160Z,3.37
2018-08-24T14:28:01.688Z,2.40
2018-08-24T14:30:30.250Z,2.90
2018-08-24T14:32:58.893Z,4.90
2018-08-24T14:35:27.540Z,4.93
2018-08-24T14:37:56.068Z,3.20
2018-08-24T14:40:24.624Z,5.10
2018-08-24T14:42:53.299Z,8.37
2018-08-24T14:45:22.004Z,5.10
2018-08-24T14:47:50.625Z,3.23
2018-08-24T14:50:19.325Z,2.23
2018-08-24T14:52:47.917Z,2.83
2018-08-24T14:55:16.428Z,1.67
2018-08-24T14:57:44.994Z,3.60
2018-08-24T15:00:13.595Z,2.93
2018-08-24T15:02:42.188Z,3.37
2018-08-24T15:05:12.011Z,3.43
2018-08-24T15:07:40.563Z,4.53
2018-08-24T15:10:10.083Z,2.67
2018-08-24T15:12:39.057Z,2.20
2018-08-24T15:15:08.044Z,3.00
2018-08-24T15:17:36.592Z,2.23
2018-08-24T15:20:05.895Z,6.33
2018-08-24T15:22:34.709Z,3.53
2018-08-24T15:25:03.496Z,3.37
2018-08-24T15:27:31.998Z,2.50
2018-08-24T15:30:00.488Z,2.77
2018-08-24T15:32:28.987Z,2.63
2018-08-24T15:34:57.507Z,2.87
2018-08-24T15:37:26.060Z,4.80
2018-08-24T15:39:54.621Z,3.90
2018-08-24T15:42:23.207Z,4.27
2018-08-24T15:44:51.765Z,4.57
2018-08-24T15:47:20.253Z,5.53
2018-08-24T15:49:48.939Z,5.37
2018-08-24T15:52:17.526Z,4.73
2018-08-24T15:54:46.091Z,5.63
2018-08-24T15:57:14.594Z,4.33
2018-08-24T15:59:43.112Z,6.00
2018-08-24T16:02:11.652Z,5.73
2018-08-24T16:04:40.253Z,2.43
2018-08-24T16:07:08.770Z,3.97
2018-08-24T16:09:37.432Z,2.33
2018-08-24T16:12:06.331Z,5.83
2018-08-24T16:14:35.034Z,5.40
2018-08-24T16:17:03.627Z,2.87
2018-08-24T16:19:32.163Z,3.37
2018-08-24T16:22:00.816Z,3.30
2018-08-24T16:24:29.309Z,7.23
2018-08-24T16:26:57.813Z,3.63
2018-08-24T16:29:26.483Z,2.30
2018-08-24T16:31:54.968Z,3.13
2018-08-24T16:34:23.539Z,4.20
2018-08-24T16:36:52.125Z,3.47
2018-08-24T16:39:20.627Z,6.03
2018-08-24T16:41:49.180Z,2.77
2018-08-24T16:44:17.663Z,3.27
2018-08-24T16:46:46.209Z,4.10
2018-08-24T16:49:14.690Z,5.00
2018-08-24T16:51:43.214Z,5.40
2018-08-24T16:54:11.928Z,4.17
2018-08-24T16:56:40.439Z,4.67
2018-08-24T16:59:09.004Z,2.77
2018-08-24T17:01:37.496Z,3.57
2018-08-24T17:04:06.105Z,2.37
2018-08-24T17:06:34.591Z,3.13
2018-08-24T17:09:03.136Z,2.83
2018-08-24T17:11:31.668Z,2.03
2018-08-24T17:14:00.216Z,5.53
2018-08-24T17:16:28.850Z,2.13
2018-08-24T17:18:57.407Z,6.70
2018-08-24T17:21:26.143Z,3.23
2018-08-24T17:23:55.528Z,3.87
2018-08-24T17:26:24.011Z,12.97
2018-08-24T17:28:53.596Z,5.27
2018-08-24T17:31:22.232Z,2.77
2018-08-24T17:33:50.728Z,4.00
2018-08-24T17:36:19.239Z,3.50
2018-08-24T17:38:47.785Z,3.13
2018-08-24T17:41:16.369Z,2.37
2018-08-24T17:43:45.244Z,4.57
2018-08-24T17:46:14.328Z,3.93
2018-08-24T17:48:42.894Z,3.23
2018-08-24T17:51:11.411Z,3.57
2018-08-24T17:53:39.968Z,4.20
2018-08-24T17:56:08.519Z,2.63
2018-08-24T17:58:37.140Z,5.27
2018-08-24T18:01:05.737Z,4.80
2018-08-24T18:03:34.284Z,3.70
2018-08-24T18:06:03.190Z,4.33
2018-08-24T18:08:31.720Z,3.30
2018-08-24T18:11:00.322Z,4.20
2018-08-24T18:13:28.852Z,5.63
2018-08-24T18:15:57.444Z,4.23
2018-08-24T18:18:25.933Z,8.33
2018-08-24T18:20:54.524Z,4.93
2018-08-24T18:23:23.110Z,3.97
2018-08-24T18:25:51.739Z,7.37
2018-08-24T18:28:20.205Z,2.50
2018-08-24T18:30:48.747Z,6.83
2018-08-24T18:33:17.331Z,4.47
2018-08-24T18:35:45.846Z,5.60
2018-08-24T18:38:14.313Z,5.10
2018-08-24T18:40:42.913Z,8.30
2018-08-24T18:43:11.460Z,4.63
2018-08-24T18:45:39.999Z,3.93
2018-08-24T18:48:15.130Z,6.20
2018-08-24T18:50:43.722Z,7.10
2018-08-24T18:53:12.179Z,10.47
2018-08-24T18:55:40.823Z,4.47
2018-08-24T18:58:09.480Z,4.27
2018-08-24T19:00:38.005Z,5.63
2018-08-24T19:03:06.508Z,3.30
2018-08-24T19:05:35.129Z,6.53
2018-08-24T19:08:11.917Z,4.90
2018-08-24T19:10:45.574Z,2.00
2018-08-24T19:13:16.105Z,4.77
2018-08-24T19:15:45.641Z,7.00
2018-08-24T19:18:19.525Z,4.33
2018-08-24T19:20:53.371Z,4.97
2018-08-24T19:23:21.827Z,5.30
2018-08-24T19:25:51.002Z,2.67
2018-08-24T19:28:24.773Z,2.90
2018-08-24T19:30:53.292Z,6.77
2018-08-24T19:33:21.852Z,3.90
2018-08-24T19:35:50.309Z,3.53
2018-08-24T19:38:18.957Z,2.93
2018-08-24T19:40:52.589Z,5.50
2018-08-24T19:43:21.205Z,4.03
2018-08-24T19:45:49.665Z,5.47
2018-08-24T19:48:23.616Z,3.27
2018-08-24T19:50:52.020Z,3.30
2018-08-24T19:53:20.575Z,4.03
2018-08-24T19:55:49.187Z,5.53
2018-08-24T19:58:23.252Z,3.07
2018-08-24T20:00:51.962Z,3.17
2018-08-24T20:03:20.371Z,5.87
2018-08-24T20:05:54.007Z,2.50
2018-08-24T20:08:27.752Z,4.37
2018-08-24T20:10:56.261Z,3.17
2018-08-24T20:13:24.811Z,2.30
2018-08-24T20:15:58.589Z,5.67
2018-08-24T20:18:27.223Z,2.23
2018-08-24T20:20:55.812Z,5.57
2018-08-24T20:23:24.437Z,4.37
2018-08-24T20:25:52.950Z,3.97
2018-08-24T20:28:21.560Z,4.27
2018-08-24T20:30:50.051Z,3.27
2018-08-24T20:33:18.558Z,3.43
2018-08-24T20:35:47.023Z,2.13
2018-08-24T20:38:15.515Z,5.43
2018-08-24T20:40:43.959Z,5.17
2018-08-24T20:43:12.560Z,4.43
2018-08-24T20:45:40.951Z,2.07
2018-08-24T20:48:09.449Z,1.77
2018-08-24T20:50:37.944Z,3.50
2018-08-24T20:53:06.527Z,3.23
2018-08-24T20:55:35.194Z,4.90
2018-08-24T20:58:03.639Z,2.83
2018-08-24T21:00:32.135Z,3.70
2018-08-24T21:03:00.718Z,3.27
2018-08-24T21:05:29.238Z,5.03
2018-08-24T21:07:57.779Z,2.87
2018-08-24T21:10:26.279Z,2.13
2018-08-24T21:12:54.765Z,4.67
2018-08-24T21:15:23.193Z,4.07
2018-08-24T21:17:51.740Z,5.20
2018-08-24T21:20:20.303Z,4.73
2018-08-24T21:22:48.957Z,3.90
2018-08-24T21:25:17.608Z,2.27
2018-08-24T21:27:46.136Z,4.17
2018-08-24T21:30:14.663Z,2.67
2018-08-24T21:32:43.317Z,1.43
2018-08-24T21:35:11.845Z,3.00
2018-08-24T21:37:40.479Z,3.43
2018-08-24T21:40:09.066Z,3.80
2018-08-24T21:42:37.751Z,2.43
2018-08-24T21:45:06.520Z,5.87
2018-08-24T21:47:35.027Z,2.87
2018-08-24T21:50:03.497Z,2.10
2018-08-24T21:52:31.985Z,2.03
2018-08-24T21:55:00.459Z,4.10
2018-08-24T21:57:28.945Z,3.63
2018-08-24T21:59:57.424Z,2.77
2018-08-24T22:02:25.944Z,3.83
2018-08-24T22:04:54.524Z,7.03
2018-08-24T22:07:22.970Z,4.67
2018-08-24T22:09:51.522Z,4.30
2018-08-24T22:12:20.018Z,3.10
2018-08-24T22:14:48.978Z,4.77
2018-08-24T22:17:17.505Z,4.00
2018-08-24T22:19:46.048Z,4.53
2018-08-24T22:22:14.571Z,2.07
2018-08-24T22:24:43.068Z,2.80
2018-08-24T22:27:11.669Z,2.17
2018-08-24T22:29:40.199Z,4.13
2018-08-24T22:32:08.696Z,3.53
2018-08-24T22:34:37.384Z,3.53
2018-08-24T22:37:05.851Z,2.77
2018-08-24T22:39:34.353Z,3.13
2018-08-24T22:42:03.069Z,1.40
2018-08-24T22:44:31.641Z,3.57
2018-08-24T22:47:00.197Z,1.93
2018-08-24T22:49:28.770Z,1.83
2018-08-24T22:51:57.272Z,1.77
2018-08-24T22:54:25.826Z,2.33
2018-08-24T22:56:54.392Z,2.93
2018-08-24T22:59:22.972Z,2.13
2018-08-24T23:01:51.499Z,1.90
2018-08-24T23:04:20.023Z,3.17
2018-08-24T23:06:48.532Z,2.20
2018-08-24T23:09:17.076Z,3.00
2018-08-24T23:11:45.577Z,1.13
2018-08-24T23:14:14.169Z,3.97
2018-08-24T23:16:42.695Z,2.73
2018-08-24T23:19:11.271Z,2.33
2018-08-24T23:21:39.817Z,3.57
2018-08-24T23:24:08.387Z,1.63
2018-08-24T23:26:36.880Z,1.93
2018-08-24T23:29:05.704Z,4.43
2018-08-24T23:31:34.162Z,3.47
2018-08-24T23:34:02.740Z,3.83
2018-08-24T23:36:31.164Z,1.53
2018-08-24T23:38:59.635Z,2.63
2018-08-24T23:41:28.102Z,1.53
2018-08-24T23:43:56.771Z,4.73
2018-08-24T23:46:25.265Z,1.93
2018-08-24T23:48:53.733Z,1.20
2018-08-24T23:51:22.281Z,4.80
2018-08-24T23:53:50.763Z,4.97
2018-08-24T23:56:19.333Z,1.63
2018-08-24T23:58:47.845Z,3.73
